createdAt,value
2017-06-30T00:00:14.849Z,1.20
2017-06-30T00:02:48.567Z,1.30
2017-06-30T00:05:22.251Z,1.50
2017-06-30T00:07:56.781Z,1.30
2017-06-30T00:10:30.780Z,1.20
2017-06-30T00:13:05.608Z,1.40
2017-06-30T00:15:39.411Z,1.40
2017-06-30T00:18:13.193Z,1.30
2017-06-30T00:20:46.921Z,1.40
2017-06-30T00:23:20.813Z,1.30
2017-06-30T00:25:54.545Z,1.50
2017-06-30T00:28:28.381Z,1.30
2017-06-30T00:31:03.025Z,1.27
2017-06-30T00:33:38.121Z,1.00
2017-06-30T00:36:11.842Z,1.43
2017-06-30T00:38:46.449Z,1.80
2017-06-30T00:41:20.424Z,1.30
2017-06-30T00:43:54.249Z,1.20
2017-06-30T00:46:27.877Z,1.10
2017-06-30T00:49:01.565Z,1.20
2017-06-30T00:51:35.234Z,1.10
2017-06-30T00:54:09.053Z,1.30
2017-06-30T00:56:42.768Z,1.20
2017-06-30T00:59:16.553Z,1.20
2017-06-30T01:01:50.274Z,1.23
2017-06-30T01:04:24.889Z,1.20
2017-06-30T01:06:58.628Z,1.10
2017-06-30T01:09:33.121Z,1.20
2017-06-30T01:12:06.962Z,0.90
2017-06-30T01:14:41.345Z,1.10
2017-06-30T01:17:15.393Z,1.40
2017-06-30T01:19:49.173Z,1.93
2017-06-30T01:22:22.802Z,1.33
2017-06-30T01:24:56.520Z,1.00
2017-06-30T01:27:30.190Z,1.77
2017-06-30T01:30:03.973Z,2.23
2017-06-30T01:32:37.689Z,1.10
2017-06-30T01:35:11.529Z,1.10
2017-06-30T01:37:45.121Z,1.23
2017-06-30T01:40:18.754Z,1.20
2017-06-30T01:42:52.500Z,1.27
2017-06-30T01:45:27.125Z,1.43
2017-06-30T01:48:01.821Z,1.80
2017-06-30T01:50:35.819Z,1.37
2017-06-30T01:53:10.349Z,1.37
2017-06-30T01:55:44.428Z,1.20
2017-06-30T01:58:18.075Z,1.50
2017-06-30T02:00:51.981Z,1.50
2017-06-30T02:03:27.318Z,1.53
2017-06-30T02:06:01.310Z,1.37
2017-06-30T02:08:34.908Z,1.50
2017-06-30T02:11:08.771Z,1.40
2017-06-30T02:13:43.259Z,1.50
2017-06-30T02:16:17.249Z,1.50
2017-06-30T02:18:51.785Z,1.50
2017-06-30T02:21:25.868Z,1.63
2017-06-30T02:23:59.577Z,1.60
2017-06-30T02:26:33.265Z,1.80
2017-06-30T02:29:06.953Z,1.40
2017-06-30T02:31:41.499Z,1.77
2017-06-30T02:34:15.319Z,1.67
2017-06-30T02:36:49.045Z,1.60
2017-06-30T02:39:24.389Z,1.50
2017-06-30T02:41:58.253Z,1.73
2017-06-30T02:44:32.724Z,1.80
2017-06-30T02:47:07.572Z,1.90
2017-06-30T02:49:42.272Z,1.80
2017-06-30T02:52:16.375Z,2.07
2017-06-30T02:54:49.978Z,2.00
2017-06-30T02:57:23.679Z,2.10
2017-06-30T02:59:58.112Z,2.60
2017-06-30T03:02:34.157Z,2.20
2017-06-30T03:05:08.699Z,2.17
2017-06-30T03:07:43.441Z,2.50
2017-06-30T03:10:18.157Z,2.47
2017-06-30T03:12:52.017Z,2.80
2017-06-30T03:15:26.542Z,2.23
2017-06-30T03:18:00.269Z,2.30
2017-06-30T03:20:33.873Z,2.17
2017-06-30T03:23:07.701Z,2.10
2017-06-30T03:25:42.225Z,2.40
2017-06-30T03:28:15.973Z,1.90
2017-06-30T03:30:49.714Z,2.00
2017-06-30T03:33:23.435Z,2.17
2017-06-30T03:35:57.969Z,2.00
2017-06-30T03:38:32.516Z,1.90
2017-06-30T03:41:06.425Z,2.07
2017-06-30T03:43:40.214Z,1.80
2017-06-30T03:46:15.525Z,2.27
2017-06-30T03:48:49.573Z,2.07
2017-06-30T03:51:24.058Z,1.43
2017-06-30T03:53:57.933Z,1.70
2017-06-30T03:56:31.725Z,1.60
2017-06-30T03:59:05.409Z,1.57
2017-06-30T04:01:39.178Z,1.70
2017-06-30T04:04:13.024Z,1.60
2017-06-30T04:06:46.635Z,1.33
2017-06-30T04:09:20.444Z,1.30
2017-06-30T04:11:54.037Z,1.60
2017-06-30T04:14:28.662Z,1.20
2017-06-30T04:17:02.578Z,1.37
2017-06-30T04:19:37.093Z,1.20
2017-06-30T04:22:11.035Z,1.20
2017-06-30T04:24:44.752Z,1.20
2017-06-30T04:27:18.489Z,1.20
2017-06-30T04:29:52.389Z,1.50
2017-06-30T04:32:26.809Z,1.77
2017-06-30T04:35:00.738Z,1.40
2017-06-30T04:37:34.555Z,1.53
2017-06-30T04:40:08.189Z,1.57
2017-06-30T04:42:42.650Z,1.50
2017-06-30T04:45:16.542Z,1.90
2017-06-30T04:47:51.072Z,1.73
2017-06-30T04:50:26.030Z,1.40
2017-06-30T04:52:59.938Z,1.43
2017-06-30T04:55:33.694Z,1.37
2017-06-30T04:58:08.141Z,1.80
2017-06-30T05:00:42.887Z,1.63
2017-06-30T05:03:16.715Z,1.80
2017-06-30T05:05:50.374Z,1.83
2017-06-30T05:08:23.961Z,1.67
2017-06-30T05:10:57.672Z,2.40
2017-06-30T05:13:31.264Z,2.00
2017-06-30T05:16:05.740Z,2.00
2017-06-30T05:18:39.612Z,2.30
2017-06-30T05:21:14.194Z,2.33
2017-06-30T05:23:48.077Z,2.37
2017-06-30T05:26:22.600Z,2.10
2017-06-30T05:28:56.416Z,2.17
2017-06-30T05:31:31.025Z,2.40
2017-06-30T05:34:04.944Z,2.00
2017-06-30T05:36:39.462Z,3.30
2017-06-30T05:39:13.349Z,2.13
2017-06-30T05:41:47.999Z,2.30
2017-06-30T05:44:21.918Z,2.20
2017-06-30T05:46:56.605Z,3.10
2017-06-30T05:49:30.539Z,2.17
2017-06-30T05:52:04.416Z,2.67
2017-06-30T05:54:38.046Z,2.23
2017-06-30T05:57:12.637Z,2.30
2017-06-30T05:59:46.468Z,2.30
2017-06-30T06:02:20.897Z,2.30
2017-06-30T06:04:54.806Z,2.20
2017-06-30T06:07:29.317Z,2.20
2017-06-30T06:10:03.158Z,2.23
2017-06-30T06:12:37.665Z,2.20
2017-06-30T06:15:11.494Z,2.30
2017-06-30T06:17:46.093Z,2.50
2017-06-30T06:20:19.978Z,2.37
2017-06-30T06:22:53.821Z,2.37
2017-06-30T06:25:27.506Z,2.40
2017-06-30T06:28:01.268Z,2.17
2017-06-30T06:30:35.015Z,2.43
2017-06-30T06:33:10.752Z,2.17
2017-06-30T06:35:45.352Z,2.53
2017-06-30T06:38:19.457Z,2.57
2017-06-30T06:40:53.893Z,2.70
2017-06-30T06:43:27.994Z,2.30
2017-06-30T06:46:01.581Z,2.33
2017-06-30T06:48:35.457Z,2.30
2017-06-30T06:51:10.852Z,2.67
2017-06-30T06:53:44.857Z,2.93
2017-06-30T06:56:19.277Z,3.00
2017-06-30T06:58:53.357Z,2.77
2017-06-30T07:01:27.745Z,2.70
2017-06-30T07:04:01.542Z,2.60
2017-06-30T07:06:36.077Z,1.90
2017-06-30T07:09:09.862Z,2.67
2017-06-30T07:11:43.694Z,2.03
2017-06-30T07:14:17.498Z,2.47
2017-06-30T07:16:52.087Z,2.97
2017-06-30T07:19:26.164Z,2.10
2017-06-30T07:21:59.900Z,2.10
2017-06-30T07:24:33.675Z,1.93
2017-06-30T07:27:07.301Z,1.97
2017-06-30T07:29:41.981Z,2.50
2017-06-30T07:32:15.885Z,1.87
2017-06-30T07:34:50.521Z,2.10
2017-06-30T07:37:24.488Z,2.00
2017-06-30T07:39:58.265Z,2.00
2017-06-30T07:42:31.929Z,2.10
2017-06-30T07:45:05.792Z,1.77
2017-06-30T07:47:39.481Z,1.60
2017-06-30T07:50:13.974Z,1.97
2017-06-30T07:52:47.793Z,1.70
2017-06-30T07:55:21.662Z,1.23
2017-06-30T07:57:55.317Z,1.70
2017-06-30T08:00:29.894Z,1.20
2017-06-30T08:03:03.629Z,1.67
2017-06-30T08:05:38.969Z,1.60
2017-06-30T08:08:12.854Z,1.20
2017-06-30T08:10:46.662Z,1.47
2017-06-30T08:13:21.037Z,1.77
2017-06-30T08:15:55.128Z,1.27
2017-06-30T08:18:28.751Z,1.60
2017-06-30T08:21:02.509Z,1.87
2017-06-30T08:23:36.253Z,1.53
2017-06-30T08:26:10.809Z,1.37
2017-06-30T08:28:44.640Z,1.53
2017-06-30T08:31:18.441Z,1.30
2017-06-30T08:33:52.118Z,1.30
2017-06-30T08:36:25.985Z,1.77
2017-06-30T08:38:59.626Z,1.73
2017-06-30T08:41:34.172Z,1.40
2017-06-30T08:44:08.057Z,1.60
2017-06-30T08:46:43.533Z,1.73
2017-06-30T08:49:17.365Z,1.30
2017-06-30T08:51:51.958Z,1.17
2017-06-30T08:54:25.789Z,1.40
2017-06-30T08:57:00.470Z,1.33
2017-06-30T08:59:34.372Z,1.40
2017-06-30T09:02:09.014Z,1.33
2017-06-30T09:04:42.930Z,1.43
2017-06-30T09:07:16.842Z,1.30
2017-06-30T09:09:52.159Z,1.00
2017-06-30T09:12:27.000Z,1.23
2017-06-30T09:15:00.798Z,1.37
2017-06-30T09:17:35.338Z,1.37
2017-06-30T09:20:09.249Z,1.57
2017-06-30T09:22:43.780Z,1.53
2017-06-30T09:25:17.733Z,1.60
2017-06-30T09:27:52.201Z,1.63
2017-06-30T09:30:26.214Z,1.90
2017-06-30T09:33:01.009Z,1.50
2017-06-30T09:35:35.599Z,1.77
2017-06-30T09:38:10.506Z,1.40
2017-06-30T09:40:44.401Z,1.50
2017-06-30T09:43:18.085Z,1.30
2017-06-30T09:45:51.913Z,1.60
2017-06-30T09:48:25.769Z,1.47
2017-06-30T09:50:59.493Z,1.50
2017-06-30T09:53:33.153Z,1.30
2017-06-30T09:56:07.618Z,1.30
2017-06-30T09:58:41.606Z,1.40
2017-06-30T10:01:15.305Z,1.20
2017-06-30T10:03:50.034Z,1.37
2017-06-30T10:06:23.761Z,1.20
2017-06-30T10:08:57.641Z,1.40
2017-06-30T10:11:31.250Z,1.00
2017-06-30T10:14:04.954Z,1.30
2017-06-30T10:16:39.478Z,1.20
2017-06-30T10:19:13.270Z,1.40
2017-06-30T10:21:47.722Z,1.13
2017-06-30T10:24:21.645Z,1.70
2017-06-30T10:26:55.277Z,1.40
2017-06-30T10:29:28.956Z,0.87
2017-06-30T10:32:02.576Z,1.20
2017-06-30T10:34:36.387Z,1.33
2017-06-30T10:37:10.773Z,0.90
2017-06-30T10:39:44.957Z,0.83
2017-06-30T10:42:18.561Z,1.30
2017-06-30T10:44:52.366Z,1.10
2017-06-30T10:47:25.970Z,1.10
2017-06-30T10:49:59.681Z,1.60
2017-06-30T10:52:34.201Z,1.20
2017-06-30T10:55:07.930Z,0.93
2017-06-30T10:57:41.556Z,1.27
2017-06-30T11:00:16.081Z,1.40
2017-06-30T11:02:50.090Z,1.20
2017-06-30T11:05:23.969Z,0.90
2017-06-30T11:07:57.648Z,1.00
2017-06-30T11:10:31.444Z,1.10
2017-06-30T11:13:05.157Z,1.10
2017-06-30T11:15:38.963Z,1.00
2017-06-30T11:18:12.630Z,1.23
2017-06-30T11:20:46.377Z,1.60
2017-06-30T11:23:20.810Z,0.97
2017-06-30T11:25:54.798Z,1.37
2017-06-30T11:28:29.237Z,0.93
2017-06-30T11:31:03.217Z,1.10
2017-06-30T11:33:36.929Z,1.07
2017-06-30T11:36:10.654Z,1.20
2017-06-30T11:38:44.232Z,1.00
2017-06-30T11:41:17.932Z,1.43
2017-06-30T11:43:52.418Z,1.17
2017-06-30T11:46:26.847Z,0.90
2017-06-30T11:49:00.818Z,0.80
2017-06-30T11:51:34.538Z,1.20
2017-06-30T11:54:08.153Z,0.90
2017-06-30T11:56:42.770Z,1.07
2017-06-30T11:59:17.481Z,1.10
2017-06-30T12:01:52.337Z,1.00
2017-06-30T12:04:26.298Z,1.30
2017-06-30T12:07:00.213Z,1.10
2017-06-30T12:09:34.752Z,1.20
2017-06-30T12:12:08.613Z,0.83
2017-06-30T12:14:43.074Z,0.90
2017-06-30T12:17:17.033Z,1.50
2017-06-30T12:19:51.606Z,0.87
2017-06-30T12:22:25.605Z,0.70
2017-06-30T12:25:00.174Z,0.80
2017-06-30T12:27:34.767Z,1.00
2017-06-30T12:30:09.196Z,0.90
2017-06-30T12:32:45.285Z,0.80
2017-06-30T12:35:19.080Z,0.83
2017-06-30T12:37:52.877Z,0.73
2017-06-30T12:40:27.285Z,1.00
2017-06-30T12:43:02.139Z,0.70
2017-06-30T12:45:36.043Z,1.33
2017-06-30T12:48:09.905Z,0.93
2017-06-30T12:50:43.533Z,0.77
2017-06-30T12:53:17.311Z,0.70
2017-06-30T12:55:51.853Z,0.80
2017-06-30T12:58:25.827Z,0.97
2017-06-30T13:00:59.389Z,0.80
2017-06-30T13:03:34.257Z,1.00
2017-06-30T13:06:08.809Z,0.80
2017-06-30T13:08:42.695Z,0.73
2017-06-30T13:11:18.078Z,0.60
2017-06-30T13:13:52.169Z,0.60
2017-06-30T13:16:26.504Z,1.00
2017-06-30T13:19:01.362Z,1.00
2017-06-30T13:21:35.237Z,0.90
2017-06-30T13:24:09.679Z,0.70
2017-06-30T13:26:43.703Z,1.10
2017-06-30T13:29:18.222Z,0.70
2017-06-30T13:31:52.081Z,1.10
2017-06-30T13:34:27.740Z,0.83
2017-06-30T13:37:01.408Z,0.87
2017-06-30T13:39:35.805Z,0.97
2017-06-30T13:42:09.779Z,0.80
2017-06-30T13:44:44.453Z,0.60
2017-06-30T13:47:18.379Z,0.70
2017-06-30T13:49:52.984Z,0.70
2017-06-30T13:52:27.673Z,1.13
2017-06-30T13:55:02.421Z,1.00
2017-06-30T13:57:36.365Z,1.10
2017-06-30T14:00:11.105Z,1.63
2017-06-30T14:02:44.801Z,0.70
2017-06-30T14:05:19.417Z,0.80
2017-06-30T14:07:53.272Z,0.60
2017-06-30T14:10:27.206Z,0.70
2017-06-30T14:13:00.808Z,0.77
2017-06-30T14:15:34.619Z,0.70
2017-06-30T14:18:09.106Z,0.60
2017-06-30T14:20:43.262Z,0.87
2017-06-30T14:23:16.901Z,0.80
2017-06-30T14:25:50.799Z,0.70
2017-06-30T14:28:24.432Z,0.90
2017-06-30T14:30:58.057Z,0.70
2017-06-30T14:33:32.585Z,0.80
2017-06-30T14:36:06.561Z,0.83
2017-06-30T14:38:40.146Z,0.70
2017-06-30T14:41:13.981Z,0.80
2017-06-30T14:43:48.525Z,0.97
2017-06-30T14:46:22.226Z,0.70
2017-06-30T14:48:56.733Z,0.60
2017-06-30T14:51:30.782Z,0.73
2017-06-30T14:54:04.493Z,0.70
2017-06-30T14:56:38.309Z,0.57
2017-06-30T14:59:12.865Z,1.20
2017-06-30T15:01:46.649Z,1.17
2017-06-30T15:04:20.372Z,1.30
2017-06-30T15:06:54.346Z,0.87
2017-06-30T15:09:28.081Z,0.80
2017-06-30T15:12:02.657Z,0.80
2017-06-30T15:14:37.133Z,0.70
2017-06-30T15:17:11.124Z,0.90
2017-06-30T15:19:45.566Z,1.00
2017-06-30T15:22:19.425Z,0.80
2017-06-30T15:24:53.898Z,0.80
2017-06-30T15:27:27.944Z,0.67
2017-06-30T15:30:02.433Z,0.70
2017-06-30T15:32:37.406Z,0.70
2017-06-30T15:35:11.169Z,0.80
2017-06-30T15:37:44.966Z,0.90
2017-06-30T15:40:19.393Z,0.80
2017-06-30T15:42:53.381Z,0.80
2017-06-30T15:45:27.821Z,1.60
2017-06-30T15:48:01.917Z,0.83
2017-06-30T15:50:37.182Z,0.63
2017-06-30T15:53:11.932Z,1.20
2017-06-30T15:55:45.846Z,0.80
2017-06-30T15:58:19.797Z,1.00
2017-06-30T16:00:54.237Z,0.80
2017-06-30T16:03:29.068Z,0.63
2017-06-30T16:06:02.810Z,0.70
2017-06-30T16:08:37.349Z,0.50
2017-06-30T16:11:11.288Z,0.90
2017-06-30T16:13:45.133Z,1.00
2017-06-30T16:16:18.839Z,1.00
2017-06-30T16:18:52.626Z,1.10
2017-06-30T16:21:27.140Z,0.80
2017-06-30T16:24:01.237Z,0.83
2017-06-30T16:26:35.778Z,0.77
2017-06-30T16:29:09.739Z,0.80
2017-06-30T16:31:43.488Z,0.90
2017-06-30T16:34:18.112Z,0.67
2017-06-30T16:36:51.814Z,0.70
2017-06-30T16:39:25.499Z,0.70
2017-06-30T16:41:59.210Z,0.80
2017-06-30T16:44:33.113Z,0.60
2017-06-30T16:47:07.728Z,0.50
2017-06-30T16:49:41.561Z,0.57
2017-06-30T16:52:15.173Z,0.60
2017-06-30T16:54:48.873Z,0.60
2017-06-30T16:57:23.297Z,0.73
2017-06-30T16:59:57.290Z,0.87
2017-06-30T17:02:30.969Z,0.63
2017-06-30T17:05:06.568Z,1.30
2017-06-30T17:07:41.085Z,0.50
2017-06-30T17:10:15.180Z,1.20
2017-06-30T17:12:50.697Z,0.70
2017-06-30T17:15:24.632Z,0.80
2017-06-30T17:17:59.077Z,0.60
2017-06-30T17:20:33.018Z,0.80
2017-06-30T17:23:07.510Z,0.80
2017-06-30T17:25:41.514Z,0.83
2017-06-30T17:28:15.149Z,0.70
2017-06-30T17:30:49.668Z,0.70
2017-06-30T17:33:24.574Z,0.70
2017-06-30T17:35:58.515Z,0.87
2017-06-30T17:38:32.905Z,0.70
2017-06-30T17:41:07.577Z,1.00
2017-06-30T17:43:41.473Z,1.40
2017-06-30T17:46:16.005Z,0.87
2017-06-30T17:48:50.683Z,1.00
2017-06-30T17:51:24.614Z,1.10
2017-06-30T17:53:58.336Z,0.70
2017-06-30T17:56:32.014Z,0.80
2017-06-30T17:59:05.645Z,0.90
2017-06-30T18:01:39.525Z,0.90
2017-06-30T18:04:13.342Z,0.80
2017-06-30T18:06:47.037Z,0.80
2017-06-30T18:09:20.601Z,0.70
2017-06-30T18:11:55.178Z,1.10
2017-06-30T18:14:29.087Z,0.87
2017-06-30T18:17:02.864Z,1.00
2017-06-30T18:19:37.293Z,0.80
2017-06-30T18:22:11.758Z,0.80
2017-06-30T18:24:45.846Z,0.60
2017-06-30T18:27:20.376Z,0.80
2017-06-30T18:29:54.482Z,1.27
2017-06-30T18:32:30.330Z,1.10
2017-06-30T18:35:04.090Z,1.00
2017-06-30T18:37:38.675Z,0.60
2017-06-30T18:40:13.471Z,0.77
2017-06-30T18:42:47.564Z,0.77
2017-06-30T18:45:21.279Z,0.70
2017-06-30T18:47:55.045Z,0.63
2017-06-30T18:50:29.603Z,0.70
2017-06-30T18:53:03.563Z,0.90
2017-06-30T18:55:38.134Z,0.87
2017-06-30T18:58:12.107Z,0.70
2017-06-30T19:00:46.557Z,0.70
2017-06-30T19:03:22.632Z,0.70
2017-06-30T19:05:56.379Z,0.80
2017-06-30T19:08:30.092Z,0.93
2017-06-30T19:11:03.937Z,0.60
2017-06-30T19:13:37.817Z,0.90
2017-06-30T19:16:11.475Z,0.90
2017-06-30T19:18:46.110Z,0.87
2017-06-30T19:21:20.126Z,1.00
2017-06-30T19:23:54.650Z,0.90
2017-06-30T19:26:28.560Z,0.80
2017-06-30T19:29:03.998Z,0.70
2017-06-30T19:31:38.098Z,0.80
2017-06-30T19:34:13.643Z,0.70
2017-06-30T19:36:47.471Z,0.77
2017-06-30T19:39:21.161Z,0.80
2017-06-30T19:41:56.471Z,0.80
2017-06-30T19:44:31.357Z,0.97
2017-06-30T19:47:05.285Z,0.70
2017-06-30T19:49:39.058Z,0.73
2017-06-30T19:52:12.875Z,0.80
2017-06-30T19:54:47.377Z,0.80
2017-06-30T19:57:21.323Z,1.17
2017-06-30T19:59:55.819Z,0.80
2017-06-30T20:02:29.628Z,0.83
2017-06-30T20:05:05.153Z,1.03
2017-06-30T20:07:39.649Z,0.80
2017-06-30T20:10:14.748Z,1.37
2017-06-30T20:12:48.595Z,1.13
2017-06-30T20:15:22.352Z,1.23
2017-06-30T20:17:55.977Z,0.80
2017-06-30T20:20:29.691Z,1.00
2017-06-30T20:23:05.051Z,1.00
2017-06-30T20:25:38.838Z,1.03
2017-06-30T20:28:12.448Z,0.77
2017-06-30T20:30:46.278Z,0.90
2017-06-30T20:33:20.824Z,1.20
2017-06-30T20:35:55.435Z,1.00
2017-06-30T20:38:29.158Z,0.93
2017-06-30T20:41:02.933Z,1.13
2017-06-30T20:43:37.248Z,1.00
2017-06-30T20:46:11.014Z,1.07
2017-06-30T20:48:44.797Z,1.10
2017-06-30T20:51:18.581Z,1.00
2017-06-30T20:53:53.126Z,1.20
2017-06-30T20:56:26.953Z,1.03
2017-06-30T20:59:00.553Z,1.13
2017-06-30T21:01:35.178Z,1.03
2017-06-30T21:04:08.960Z,1.00
2017-06-30T21:06:43.474Z,0.80
2017-06-30T21:09:18.049Z,1.00
2017-06-30T21:11:52.117Z,1.30
2017-06-30T21:14:25.774Z,1.37
2017-06-30T21:17:00.233Z,0.93
2017-06-30T21:19:34.921Z,0.97
2017-06-30T21:22:08.797Z,1.00
2017-06-30T21:24:42.578Z,0.80
2017-06-30T21:27:16.317Z,0.90
2017-06-30T21:29:50.133Z,0.93
2017-06-30T21:32:23.872Z,1.00
2017-06-30T21:34:57.597Z,0.80
2017-06-30T21:37:32.404Z,0.90
2017-06-30T21:40:07.021Z,0.80
2017-06-30T21:42:40.958Z,1.30
2017-06-30T21:45:14.561Z,0.97
2017-06-30T21:47:48.305Z,1.00
2017-06-30T21:50:21.909Z,0.80
2017-06-30T21:52:56.401Z,0.93
2017-06-30T21:55:30.246Z,0.90
2017-06-30T21:58:04.866Z,1.00
2017-06-30T22:00:38.525Z,1.10
2017-06-30T22:03:14.028Z,1.30
2017-06-30T22:05:47.745Z,0.80
2017-06-30T22:08:21.549Z,1.07
2017-06-30T22:10:55.961Z,1.20
2017-06-30T22:13:29.944Z,0.87
2017-06-30T22:16:04.291Z,0.70
2017-06-30T22:18:39.053Z,1.10
2017-06-30T22:21:12.933Z,0.93
2017-06-30T22:23:46.819Z,0.80
2017-06-30T22:26:21.361Z,0.80
2017-06-30T22:28:55.530Z,0.90
2017-06-30T22:31:30.100Z,0.80
2017-06-30T22:34:06.161Z,0.63
2017-06-30T22:36:40.674Z,0.80
2017-06-30T22:39:14.663Z,1.07
2017-06-30T22:41:48.393Z,0.80
2017-06-30T22:44:23.006Z,1.00
2017-06-30T22:46:56.643Z,0.90
2017-06-30T22:49:30.505Z,0.90
2017-06-30T22:52:04.107Z,0.70
2017-06-30T22:54:37.981Z,0.80
2017-06-30T22:57:13.273Z,0.83
2017-06-30T22:59:47.146Z,0.93
2017-06-30T23:02:21.501Z,1.00
2017-06-30T23:04:56.474Z,0.90
2017-06-30T23:07:30.223Z,1.00
2017-06-30T23:10:04.793Z,0.80
2017-06-30T23:12:38.603Z,1.17
2017-06-30T23:15:12.450Z,0.80
2017-06-30T23:17:46.057Z,0.97
2017-06-30T23:20:19.942Z,0.87
2017-06-30T23:22:54.405Z,0.70
2017-06-30T23:25:28.440Z,0.80
2017-06-30T23:28:02.953Z,0.77
2017-06-30T23:30:36.940Z,0.70
2017-06-30T23:33:10.548Z,0.77
2017-06-30T23:35:45.202Z,0.70
2017-06-30T23:38:19.802Z,0.70
2017-06-30T23:40:53.695Z,0.80
2017-06-30T23:43:28.225Z,0.77
2017-06-30T23:46:02.310Z,0.87
2017-06-30T23:48:36.760Z,0.80
2017-06-30T23:51:10.669Z,0.53
2017-06-30T23:53:45.094Z,0.67
2017-06-30T23:56:18.990Z,0.67
2017-06-30T23:58:53.730Z,0.63
